LFKC/CLY METAR and TAF weather

Enter ICAO airport designator
Station Type Date Time Source
LFKC METAR 2022/11/26 08:30 UTC NOAA

LFKC 260830Z AUTO 05007KT 360V090 9999 FEW034/// BKN041/// BKN048/// ///TCU 12/09 Q1021 BECMG 04015G30KT NSC


Station Type Date Time Source
LFKC Decoded METAR 2022/11/26 08:30 UTC NOAA

Calvi, France (LFKC) 42-32N 008-48E 58M
Nov 26, 2022 - 03:30 AM EST / 2022.11.26 0830 UTC
Wind: from the NE (050 degrees) at 8 MPH (7 KT) (direction variable):0
Visibility: greater than 7 mile(s):0
Sky conditions: mostly cloudy
Weather: Towering cumulus clouds observed
Temperature: 53 F (12 C)
Dew Point: 48 F (9 C)
Relative Humidity: 81%
Pressure (altimeter): 30.15 in. Hg (1021 hPa)
ob: LFKC 260830Z AUTO 05007KT 360V090 9999 FEW034/// BKN041/// BKN048/// ///TCU 12/09 Q1021 BECMG 04015G30KT NSC
cycle: 8

Station Type Date Time Source
LFKC TAF 2022/11/26 09:47 UTC NOAA

TAF LFKC 260800Z 2609/2709 03015G25KT 9999 FEW050 TX16/2612Z TN10/2704Z
BECMG 2616/2618 03012KT

Example: see airport list